Time;durP1;ratioP1;P1;durP2;ratioP2;P2;SDS_P1;SDS_P2;PMS_P1;PMS_P2;Temp;Humidity;BMP_temperature;BMP_pressure;BME280_temperature;BME280_humidity;BME280_pressure;Samples;Min_cycle;Max_cycle;Signal;HPM_P1;HPM_P2
2022/06/26 00:02:25;;;;;;;4.40;4.05;;;;;;;17.83;73.64;98647.72;2100833;83;21049;-82
2022/06/26 00:05:26;;;;;;;8.93;5.15;;;;;;;17.84;73.58;98650.69;2113077;82;20967;-82
2022/06/26 00:08:26;;;;;;;4.92;4.60;;;;;;;17.83;73.42;98646.39;2100148;82;21556;-82
2022/06/26 00:11:27;;;;;;;5.75;5.25;;;;;;;17.85;73.10;98647.80;2087873;83;21612;-83
2022/06/26 00:14:27;;;;;;;6.53;4.92;;;;;;;17.88;73.31;98645.20;2096297;83;21033;-83
2022/06/26 00:17:28;;;;;;;5.40;4.92;;;;;;;17.90;73.23;98644.45;2101047;82;21344;-82
2022/06/26 00:20:29;;;;;;;6.12;5.53;;;;;;;17.91;73.94;98654.82;2099310;83;21569;-82
2022/06/26 00:23:29;;;;;;;4.97;4.67;;;;;;;17.91;73.93;98652.17;2074719;82;21109;-90
2022/06/26 00:26:30;;;;;;;6.15;5.10;;;;;;;17.92;74.25;98656.95;2049231;86;21081;-89
2022/06/26 00:29:31;;;;;;;5.87;5.35;;;;;;;17.95;73.65;98653.06;2047448;85;21100;-89
2022/06/26 00:32:31;;;;;;;5.28;4.87;;;;;;;17.96;73.56;98648.05;2048497;85;21085;-89
2022/06/26 00:35:32;;;;;;;5.62;4.97;;;;;;;17.98;73.77;98653.40;2047100;85;21093;-89
2022/06/26 00:38:33;;;;;;;5.15;4.55;;;;;;;17.99;73.53;98652.36;2047736;85;21057;-90
2022/06/26 00:41:34;;;;;;;5.35;4.70;;;;;;;17.99;73.43;98651.55;2051451;86;21026;-87
2022/06/26 00:44:35;;;;;;;6.15;5.12;;;;;;;17.99;73.39;98652.36;2055312;86;21052;-88
2022/06/26 00:47:36;;;;;;;5.78;5.03;;;;;;;17.98;73.66;98655.23;2074268;85;21116;-89
2022/06/26 00:50:36;;;;;;;5.33;4.92;;;;;;;18.01;73.60;98660.08;2074535;84;21037;-92
2022/06/26 00:53:37;;;;;;;5.67;5.17;;;;;;;18.01;73.54;98658.23;2053202;85;21098;-90
2022/06/26 00:56:38;;;;;;;5.40;4.97;;;;;;;18.03;73.64;98667.30;2054600;85;21572;-89
2022/06/26 00:59:38;;;;;;;6.53;5.92;;;;;;;18.03;73.06;98666.78;2054656;85;21477;-89
2022/06/26 01:02:39;;;;;;;5.55;5.12;;;;;;;18.01;73.33;98664.85;2035464;85;21093;-90
2022/06/26 01:05:40;;;;;;;5.65;5.15;;;;;;;18.00;73.81;98666.41;2044358;85;21180;-89
2022/06/26 01:08:41;;;;;;;5.12;4.62;;;;;;;17.96;73.47;98659.97;2070295;84;21098;-90
2022/06/26 01:11:41;;;;;;;5.00;4.65;;;;;;;17.94;74.14;98664.17;2073940;85;21041;-89
2022/06/26 01:14:42;;;;;;;4.95;4.65;;;;;;;17.90;73.95;98661.16;2046578;85;21010;-88
2022/06/26 01:17:43;;;;;;;4.95;4.65;;;;;;;17.93;73.79;98664.41;2032095;85;21062;-89
2022/06/26 01:20:43;;;;;;;6.62;4.33;;;;;;;17.94;73.86;98668.66;2078043;84;21172;-90
2022/06/26 01:23:44;;;;;;;5.67;5.15;;;;;;;17.94;73.79;98662.05;2080695;84;21612;-89
2022/06/26 01:26:45;;;;;;;5.17;4.75;;;;;;;17.91;73.90;98665.41;2080394;84;21527;-90
2022/06/26 01:29:45;;;;;;;6.53;5.17;;;;;;;17.88;73.90;98668.53;2056365;85;21081;-89
2022/06/26 01:32:46;;;;;;;6.15;5.58;;;;;;;17.86;74.15;98660.01;2046545;85;21093;-89
2022/06/26 01:35:47;;;;;;;5.83;5.33;;;;;;;17.86;73.92;98667.15;2042774;85;21055;-89
2022/06/26 01:38:47;;;;;;;5.85;5.17;;;;;;;17.84;74.05;98672.67;2054451;85;21132;-86
2022/06/26 01:41:49;;;;;;;6.03;5.62;;;;;;;17.83;74.15;98668.42;2055300;86;21034;-87
2022/06/26 01:44:50;;;;;;;5.65;5.15;;;;;;;17.81;74.35;98659.06;2050070;85;21077;-85
2022/06/26 01:47:51;;;;;;;5.25;4.75;;;;;;;17.79;74.78;98665.92;2052604;85;20994;-90
2022/06/26 01:50:51;;;;;;;6.22;5.67;;;;;;;17.76;74.81;98662.41;2043449;85;21102;-87
2022/06/26 01:53:52;;;;;;;5.50;4.97;;;;;;;17.75;75.38;98667.42;2049281;85;21078;-90
2022/06/26 01:56:52;;;;;;;6.17;4.83;;;;;;;17.73;75.06;98669.46;2050319;84;21078;-90
2022/06/26 01:59:53;;;;;;;6.08;5.67;;;;;;;17.73;75.00;98669.98;2049922;85;21113;-90
2022/06/26 02:02:54;;;;;;;6.72;6.03;;;;;;;17.71;76.05;98671.53;2040001;85;21074;-89
2022/06/26 02:05:54;;;;;;;6.30;5.80;;;;;;;17.71;75.55;98670.73;2061799;84;21038;-90
2022/06/26 02:08:55;;;;;;;7.05;5.97;;;;;;;17.68;75.96;98673.29;2045966;84;21078;-90
2022/06/26 02:15:15;;;;;;;5.78;5.30;;;;;;;17.65;77.35;98677.72;2074513;85;21052;-90
2022/06/26 02:18:15;;;;;;;6.37;5.87;;;;;;;17.61;77.21;98676.55;2071033;84;21105;-88
2022/06/26 02:21:16;;;;;;;6.47;5.97;;;;;;;17.59;77.01;98682.59;2053694;84;21019;-90
2022/06/26 02:24:17;;;;;;;6.70;6.00;;;;;;;17.56;77.74;98684.38;2054067;86;21526;-90
2022/06/26 02:27:17;;;;;;;5.30;4.80;;;;;;;17.53;78.36;98692.22;2048322;85;21520;-90
2022/06/26 02:30:18;;;;;;;6.42;5.30;;;;;;;17.47;78.32;98693.14;2042039;86;21045;-88
2022/06/26 02:33:19;;;;;;;9.75;5.50;;;;;;;17.42;79.01;98694.83;2051529;85;21026;-90
2022/06/26 02:36:20;;;;;;;7.37;5.80;;;;;;;17.38;79.16;98695.80;2046945;85;21177;-89
2022/06/26 02:39:21;;;;;;;6.90;5.80;;;;;;;17.35;79.44;98704.98;2046880;85;21056;-89
2022/06/26 02:42:21;;;;;;;6.22;5.72;;;;;;;17.32;80.26;98707.27;2056000;85;21187;-90
2022/06/26 02:45:22;;;;;;;5.65;5.08;;;;;;;17.31;80.10;98709.62;2072033;84;21097;-89
2022/06/26 02:48:22;;;;;;;5.80;5.40;;;;;;;17.31;80.15;98709.62;2074415;85;21018;-90
2022/06/26 02:51:23;;;;;;;6.70;5.33;;;;;;;17.29;81.30;98712.50;2074217;84;21097;-90
2022/06/26 02:54:24;;;;;;;5.83;5.17;;;;;;;17.29;80.85;98709.86;2072982;85;21045;-89
2022/06/26 02:57:24;;;;;;;6.92;5.87;;;;;;;17.31;80.81;98707.80;2040506;86;21541;-90
2022/06/26 03:00:25;;;;;;;5.55;5.05;;;;;;;17.46;80.35;98710.55;2036690;85;21113;-89
2022/06/26 03:03:26;;;;;;;8.88;6.17;;;;;;;17.70;80.28;98713.61;2042447;85;21067;-89
2022/06/26 03:06:27;;;;;;;5.97;5.42;;;;;;;17.95;79.31;98717.44;2037330;85;21003;-89
2022/06/26 03:09:28;;;;;;;7.67;5.10;;;;;;;18.25;78.48;98722.67;2045519;85;21137;-90
2022/06/26 03:12:29;;;;;;;5.55;5.05;;;;;;;18.58;77.30;98727.95;2050518;85;20990;-91
2022/06/26 03:15:29;;;;;;;6.53;4.70;;;;;;;18.95;76.54;98726.68;2055664;86;21085;-88
2022/06/26 03:18:30;;;;;;;5.67;4.72;;;;;;;19.32;75.22;98727.17;2056151;85;21561;-90
2022/06/26 03:21:31;;;;;;;5.45;5.03;;;;;;;19.79;73.11;98728.86;2054395;85;21007;-89
2022/06/26 03:24:31;;;;;;;4.22;3.92;;;;;;;20.18;72.08;98725.80;2038165;85;21104;-89
2022/06/26 03:27:32;;;;;;;4.65;4.35;;;;;;;20.52;69.61;98739.94;2046591;85;21098;-90
2022/06/26 03:30:33;;;;;;;4.17;3.85;;;;;;;20.77;68.89;98731.53;2053103;85;21066;-88
2022/06/26 03:33:33;;;;;;;6.37;4.45;;;;;;;21.07;67.10;98732.45;2047943;85;21101;-90
2022/06/26 03:36:34;;;;;;;4.53;4.12;;;;;;;21.48;66.42;98740.95;2046061;85;21509;-87
2022/06/26 03:39:35;;;;;;;4.50;4.00;;;;;;;21.82;65.01;98737.58;2042089;84;21558;-88
2022/06/26 03:42:36;;;;;;;4.20;3.90;;;;;;;22.16;63.09;98738.20;2035928;85;21126;-88
2022/06/26 03:45:37;;;;;;;4.17;3.87;;;;;;;22.44;62.34;98741.09;2053024;85;21577;-86
2022/06/26 03:48:37;;;;;;;3.90;3.70;;;;;;;22.82;61.04;98742.66;2054544;85;21053;-88
2022/06/26 03:51:38;;;;;;;4.10;3.67;;;;;;;23.05;58.88;98745.50;2051345;85;21106;-87
2022/06/26 03:54:38;;;;;;;4.10;3.90;;;;;;;23.29;55.96;98745.86;2038332;86;21046;-88
2022/06/26 03:57:39;;;;;;;4.22;3.92;;;;;;;23.50;56.62;98750.23;2045335;86;21085;-88
2022/06/26 04:00:40;;;;;;;4.20;3.83;;;;;;;23.88;56.02;98742.06;2042865;85;21071;-88
2022/06/26 04:03:41;;;;;;;4.35;3.67;;;;;;;24.16;54.75;98741.55;2050244;84;21528;-87
2022/06/26 04:06:41;;;;;;;4.28;3.92;;;;;;;24.38;52.53;98742.09;2056341;86;21589;-88
2022/06/26 04:09:42;;;;;;;3.70;3.42;;;;;;;24.62;52.45;98746.91;2050136;86;21093;-87
2022/06/26 04:12:43;;;;;;;4.53;4.17;;;;;;;24.90;51.78;98749.52;2043053;85;20995;-88
2022/06/26 04:15:43;;;;;;;3.95;3.75;;;;;;;25.24;50.35;98743.02;2046586;85;21604;-88
2022/06/26 04:18:44;;;;;;;3.87;3.50;;;;;;;25.31;49.25;98748.86;2050473;86;21049;-88
2022/06/26 04:21:44;;;;;;;3.70;3.37;;;;;;;25.63;49.73;98745.77;2049110;85;21103;-88
2022/06/26 04:24:45;;;;;;;4.37;4.08;;;;;;;25.94;48.08;98754.45;2050207;85;21053;-87
2022/06/26 04:27:46;;;;;;;3.90;3.60;;;;;;;26.10;47.50;98753.81;2052668;86;21093;-88
2022/06/26 04:30:46;;;;;;;4.10;3.72;;;;;;;26.39;47.31;98758.44;2044765;85;21038;-87
2022/06/26 04:33:47;;;;;;;4.28;3.95;;;;;;;26.55;45.42;98755.88;2050081;85;21373;-88
2022/06/26 04:36:48;;;;;;;4.67;4.10;;;;;;;26.62;45.69;98753.67;2052309;85;21603;-88
2022/06/26 04:39:49;;;;;;;6.95;4.17;;;;;;;26.80;45.46;98754.84;2038075;85;21594;-89
2022/06/26 04:42:49;;;;;;;4.05;3.77;;;;;;;27.00;44.06;98762.68;2042957;86;21093;-87
2022/06/26 04:45:50;;;;;;;7.00;4.33;;;;;;;27.07;44.56;98762.38;2044165;85;21122;-88
2022/06/26 04:48:51;;;;;;;3.90;3.70;;;;;;;27.37;44.15;98771.41;2045404;84;21090;-87
2022/06/26 04:51:51;;;;;;;3.37;3.15;;;;;;;27.84;43.87;98772.98;2051865;85;21570;-88
2022/06/26 04:54:52;;;;;;;3.77;3.58;;;;;;;28.15;42.35;98774.11;2049600;85;21594;-88
2022/06/26 04:57:53;;;;;;;3.98;3.67;;;;;;;28.30;41.23;98775.80;2042390;85;21049;-88
2022/06/26 05:00:53;;;;;;;3.90;3.65;;;;;;;28.54;41.37;98775.69;2056050;84;21065;-87
2022/06/26 05:03:54;;;;;;;3.67;3.37;;;;;;;28.74;40.93;98777.22;2061526;84;21523;-85
2022/06/26 05:06:55;;;;;;;4.12;3.67;;;;;;;28.96;41.03;98780.61;2043995;85;21023;-88
2022/06/26 05:09:56;;;;;;;8.10;4.08;;;;;;;29.44;39.88;98780.98;2045988;85;21057;-85
2022/06/26 05:12:56;;;;;;;5.35;3.55;;;;;;;29.63;39.53;98783.62;2048826;85;21007;-88
2022/06/26 05:15:57;;;;;;;4.20;4.00;;;;;;;29.72;39.21;98786.64;2050734;85;21121;-87
2022/06/26 05:18:58;;;;;;;4.47;3.83;;;;;;;29.94;39.58;98791.27;2049072;85;21072;-88
2022/06/26 05:21:58;;;;;;;3.62;3.40;;;;;;;29.81;38.52;98800.73;2049395;85;21533;-89
2022/06/26 05:24:59;;;;;;;4.90;3.45;;;;;;;29.45;39.26;98795.55;2047214;85;21045;-88
2022/06/26 05:28:00;;;;;;;4.12;3.83;;;;;;;29.41;40.24;98800.48;2046026;85;21054;-87
2022/06/26 05:31:00;;;;;;;4.78;4.37;;;;;;;29.41;39.85;98801.28;2049615;86;21018;-87
2022/06/26 05:34:01;;;;;;;6.97;3.98;;;;;;;29.30;40.36;98801.79;2049097;86;21066;-88
2022/06/26 05:37:02;;;;;;;4.25;3.95;;;;;;;29.43;40.85;98807.16;2051353;86;21065;-86
2022/06/26 05:40:02;;;;;;;3.75;3.45;;;;;;;29.36;40.60;98806.79;2044759;85;21063;-85
2022/06/26 05:43:03;;;;;;;4.78;4.37;;;;;;;29.37;41.09;98806.23;2047085;85;21065;-88
2022/06/26 05:46:04;;;;;;;4.47;4.17;;;;;;;29.39;40.94;98814.81;2034928;85;21089;-87
2022/06/26 05:49:04;;;;;;;5.28;4.22;;;;;;;28.94;40.26;98816.49;2075953;84;21065;-88
2022/06/26 05:52:05;;;;;;;4.92;4.53;;;;;;;28.40;40.50;98828.69;2074128;85;22162;-89
2022/06/26 05:55:06;;;;;;;4.97;4.55;;;;;;;27.93;41.37;98826.38;2073109;85;21160;-88
2022/06/26 05:58:07;;;;;;;4.28;3.87;;;;;;;27.65;41.89;98814.08;2074050;84;21006;-88
2022/06/26 06:01:07;;;;;;;4.70;4.30;;;;;;;27.58;42.64;98819.00;2063923;85;21080;-88
2022/06/26 06:04:08;;;;;;;8.80;5.03;;;;;;;27.53;42.71;98823.66;2046488;85;21040;-89
2022/06/26 06:07:09;;;;;;;4.92;4.50;;;;;;;27.37;43.48;98829.75;2045488;86;21046;-88
2022/06/26 06:10:10;;;;;;;4.78;4.17;;;;;;;27.19;44.13;98827.27;2042610;85;21054;-85
2022/06/26 06:13:10;;;;;;;5.03;4.05;;;;;;;27.26;44.49;98833.11;2046248;85;21027;-88
2022/06/26 06:16:11;;;;;;;4.70;4.30;;;;;;;27.32;45.12;98833.28;2041935;86;21054;-88
2022/06/26 06:19:12;;;;;;;5.40;4.10;;;;;;;27.37;44.53;98835.92;2053375;86;21034;-86
2022/06/26 06:22:13;;;;;;;5.25;4.45;;;;;;;27.42;44.43;98833.71;2036603;86;21069;-88
2022/06/26 06:25:13;;;;;;;4.30;4.00;;;;;;;27.36;44.22;98834.87;2073421;84;21065;-88
2022/06/26 06:28:14;;;;;;;4.70;4.30;;;;;;;27.43;44.24;98835.30;2071238;86;21073;-89
2022/06/26 06:31:15;;;;;;;4.78;4.28;;;;;;;27.34;43.96;98836.52;2068983;84;21036;-86
2022/06/26 06:34:15;;;;;;;5.10;4.70;;;;;;;27.40;44.67;98841.27;2046595;85;21114;-82
2022/06/26 06:37:16;;;;;;;5.20;4.45;;;;;;;27.53;44.72;98846.52;2044942;85;21003;-82
2022/06/26 06:40:17;;;;;;;4.85;4.22;;;;;;;27.68;44.78;98848.48;2043880;85;21026;-81
2022/06/26 06:43:18;;;;;;;6.45;4.20;;;;;;;27.80;44.78;98845.91;2062056;85;21620;-84
2022/06/26 06:46:18;;;;;;;4.92;4.03;;;;;;;27.79;44.31;98849.16;2045621;86;21066;-84
2022/06/26 06:49:19;;;;;;;4.15;3.75;;;;;;;27.82;44.47;98855.32;2049412;85;21042;-86
2022/06/26 06:52:20;;;;;;;5.30;3.98;;;;;;;27.79;43.49;98857.22;2047465;85;21073;-85
2022/06/26 06:55:21;;;;;;;4.15;3.83;;;;;;;27.79;43.83;98857.22;2049966;86;21035;-88
2022/06/26 06:58:21;;;;;;;4.20;3.80;;;;;;;27.58;43.73;98853.96;2043465;85;21049;-87
2022/06/26 07:01:22;;;;;;;5.40;3.87;;;;;;;27.58;43.84;98857.20;2052421;85;21054;-86
2022/06/26 07:04:23;;;;;;;7.67;4.33;;;;;;;27.59;43.60;98858.25;2047040;85;21038;-87
2022/06/26 07:07:23;;;;;;;4.05;3.75;;;;;;;27.64;44.44;98865.47;2053147;85;21062;-86
2022/06/26 07:10:24;;;;;;;4.30;4.00;;;;;;;27.71;44.36;98862.72;2046567;85;21061;-90
2022/06/26 07:13:25;;;;;;;5.25;3.85;;;;;;;27.77;44.13;98858.86;2053869;86;21105;-87
2022/06/26 07:16:25;;;;;;;4.42;3.85;;;;;;;27.79;44.20;98865.29;2041390;86;21085;-86
2022/06/26 07:19:26;;;;;;;3.85;3.55;;;;;;;27.85;44.33;98862.00;2041325;85;21067;-87
2022/06/26 07:22:27;;;;;;;3.33;3.12;;;;;;;27.88;44.45;98857.37;2055933;85;21141;-87
2022/06/26 07:25:27;;;;;;;4.12;3.42;;;;;;;27.83;44.38;98861.50;2054726;84;21584;-91
2022/06/26 07:28:28;;;;;;;5.75;4.15;;;;;;;27.84;42.87;98860.41;2047319;86;21117;-85
2022/06/26 07:31:29;;;;;;;3.92;3.62;;;;;;;27.74;44.20;98860.79;2042446;85;21082;-88
2022/06/26 07:34:30;;;;;;;3.50;3.15;;;;;;;27.80;44.16;98864.75;2072360;84;21667;-83
2022/06/26 07:37:31;;;;;;;3.42;3.10;;;;;;;27.71;42.04;98860.58;2078309;84;21097;-88
2022/06/26 07:40:32;;;;;;;10.65;3.80;;;;;;;27.48;41.67;98861.61;2048029;86;21058;-84
2022/06/26 07:43:32;;;;;;;4.05;3.75;;;;;;;27.30;43.10;98861.55;2051614;85;21007;-86
2022/06/26 07:46:34;;;;;;;3.92;3.40;;;;;;;27.36;43.43;98859.87;2046173;85;21074;-85
2022/06/26 07:49:35;;;;;;;2.92;2.58;;;;;;;27.41;41.65;98859.80;2033977;85;21070;-89
2022/06/26 07:52:36;;;;;;;4.33;3.62;;;;;;;27.39;41.42;98856.59;2050352;85;21090;-86
2022/06/26 07:55:36;;;;;;;3.42;3.22;;;;;;;27.52;42.31;98852.95;2054258;85;21540;-87
2022/06/26 07:58:37;;;;;;;3.12;2.77;;;;;;;27.59;40.29;98854.22;2041739;85;21051;-87
2022/06/26 08:01:38;;;;;;;3.05;2.58;;;;;;;27.49;39.42;98861.86;2036344;86;21046;-83
2022/06/26 08:04:38;;;;;;;4.53;3.08;;;;;;;27.43;39.04;98862.19;2044004;85;21057;-87
2022/06/26 08:07:39;;;;;;;6.03;2.80;;;;;;;27.32;39.68;98864.20;2045418;87;21054;-84
2022/06/26 08:10:40;;;;;;;2.65;2.40;;;;;;;27.27;38.92;98864.81;2052713;85;21069;-86
2022/06/26 08:13:40;;;;;;;4.70;2.37;;;;;;;27.29;39.20;98854.57;2047216;85;21541;-87
2022/06/26 08:16:41;;;;;;;7.15;2.70;;;;;;;27.28;38.07;98861.03;2052348;85;21093;-85
2022/06/26 08:19:42;;;;;;;4.25;2.30;;;;;;;27.32;39.38;98858.02;2052166;85;21054;-84
2022/06/26 08:22:43;;;;;;;3.15;2.50;;;;;;;27.43;38.25;98871.60;2041163;85;21030;-86
2022/06/26 08:25:43;;;;;;;3.80;2.47;;;;;;;27.47;37.73;98868.07;2036437;87;21074;-87
2022/06/26 08:28:44;;;;;;;2.55;2.20;;;;;;;27.48;37.51;98862.15;2044554;86;21118;-87
2022/06/26 08:31:45;;;;;;;2.10;2.00;;;;;;;27.59;38.08;98862.28;2044579;86;21051;-89
2022/06/26 08:34:45;;;;;;;2.35;2.25;;;;;;;27.64;37.05;98872.98;2050161;84;21568;-88
2022/06/26 08:37:46;;;;;;;3.47;3.12;;;;;;;27.80;38.72;98867.44;2038817;85;21046;-87
2022/06/26 08:40:47;;;;;;;3.15;2.55;;;;;;;27.86;37.69;98871.13;2056409;85;21065;-88
2022/06/26 08:43:47;;;;;;;2.67;2.25;;;;;;;27.96;38.05;98868.30;2074435;84;21069;-86
2022/06/26 08:46:48;;;;;;;2.15;2.05;;;;;;;27.99;37.54;98870.98;2071868;84;21085;-86
2022/06/26 08:49:49;;;;;;;2.17;2.00;;;;;;;27.92;36.94;98875.91;2073874;84;21034;-87
2022/06/26 08:52:50;;;;;;;4.45;2.45;;;;;;;27.99;36.30;98869.08;2073245;84;21073;-87
2022/06/26 08:55:51;;;;;;;3.95;2.92;;;;;;;28.07;36.96;98872.99;2073580;84;21048;-88
2022/06/26 08:58:52;;;;;;;2.60;2.20;;;;;;;28.05;36.61;98875.18;2072879;84;21053;-86
2022/06/26 09:01:53;;;;;;;5.25;3.17;;;;;;;28.08;36.56;98879.20;2072634;84;21041;-85
2022/06/26 09:04:53;;;;;;;2.52;2.42;;;;;;;28.15;37.98;98874.23;2030708;86;21580;-88
2022/06/26 09:07:54;;;;;;;2.80;2.40;;;;;;;28.20;36.80;98871.48;2073188;84;21113;-87
2022/06/26 09:10:55;;;;;;;4.65;2.47;;;;;;;28.19;37.97;98880.11;2067196;84;21543;-86
2022/06/26 09:13:59;;;;;;;3.35;3.05;;;;;;;28.17;37.58;98875.57;2063576;85;21068;-86
2022/06/26 09:16:58;;;;;;;4.00;3.20;;;;;;;28.24;37.97;98878.67;2057778;84;21118;-85
2022/06/26 09:19:59;;;;;;;2.75;2.55;;;;;;;28.24;37.71;98874.64;2043414;85;21073;-85
2022/06/26 09:23:00;;;;;;;2.87;2.67;;;;;;;28.29;37.92;98870.57;2042680;85;21561;-85
2022/06/26 09:26:01;;;;;;;4.05;2.45;;;;;;;28.33;37.94;98867.53;2056851;85;21501;-85
2022/06/26 09:29:01;;;;;;;2.95;2.67;;;;;;;28.39;37.36;98859.39;2045662;85;21129;-86
2022/06/26 09:32:02;;;;;;;2.90;2.50;;;;;;;28.43;35.75;98865.23;2050841;85;21053;-86
2022/06/26 09:35:03;;;;;;;5.37;2.60;;;;;;;28.43;36.80;98865.78;2044393;86;20997;-86
2022/06/26 09:38:03;;;;;;;2.70;2.20;;;;;;;28.44;36.96;98869.55;2053461;85;21068;-88
2022/06/26 09:41:04;;;;;;;3.75;2.65;;;;;;;28.36;35.96;98864.83;2044584;85;21027;-86
2022/06/26 09:44:05;;;;;;;2.67;2.47;;;;;;;28.36;35.73;98865.37;2038576;86;20999;-87
2022/06/26 09:47:05;;;;;;;6.03;2.85;;;;;;;28.33;34.89;98866.19;2055885;85;21069;-88
2022/06/26 09:50:07;;;;;;;6.28;2.40;;;;;;;28.37;35.87;98866.42;2038795;85;21053;-82
2022/06/26 09:53:07;;;;;;;2.67;2.20;;;;;;;28.48;36.13;98875.14;2053792;85;21062;-85
2022/06/26 09:56:09;;;;;;;2.25;2.15;;;;;;;28.54;35.77;98878.02;2052416;86;21011;-81
2022/06/26 09:59:09;;;;;;;2.55;2.35;;;;;;;28.59;35.88;98875.23;2057665;85;22120;-85
2022/06/26 10:08:48;;;;;;;3.12;2.02;;;;;;;28.71;33.61;98864.81;2050380;85;21074;-86
2022/06/26 10:11:48;;;;;;;2.08;1.92;;;;;;;28.70;34.75;98856.45;2047119;85;21147;-87
2022/06/26 10:14:51;;;;;;;4.47;2.08;;;;;;;28.70;34.88;98862.39;2051688;84;21078;-88
2022/06/26 10:17:51;;;;;;;2.10;2.00;;;;;;;28.69;35.13;98862.94;2049733;85;21120;-90
2022/06/26 10:20:52;;;;;;;5.12;2.52;;;;;;;28.72;36.14;98861.03;2048890;85;20999;-88
2022/06/26 10:23:53;;;;;;;2.50;2.12;;;;;;;28.74;35.33;98857.48;2051759;85;21075;-83
2022/06/26 10:26:53;;;;;;;2.50;2.30;;;;;;;28.74;33.17;98876.34;2042565;85;21584;-86
2022/06/26 10:29:57;;;;;;;2.27;2.08;;;;;;;28.66;34.39;98862.74;2032264;85;21054;-88
2022/06/26 10:32:58;;;;;;;4.70;2.65;;;;;;;28.71;33.17;98872.91;2048320;85;21561;-88
2022/06/26 10:35:59;;;;;;;2.42;2.25;;;;;;;28.79;34.46;98860.08;2047731;85;21024;-89
2022/06/26 10:38:59;;;;;;;2.50;2.35;;;;;;;28.80;33.91;98872.48;2061223;85;21053;-89
2022/06/26 10:45:19;;;;;;;3.25;2.90;;;;;;;28.74;34.31;98865.56;2054202;86;21133;-85
2022/06/26 10:48:20;;;;;;;3.55;1.92;;;;;;;28.76;34.38;98864.72;2057859;85;21065;-86
2022/06/26 10:51:21;;;;;;;2.62;2.42;;;;;;;28.76;35.24;98857.19;2057273;85;21070;-84
2022/06/26 10:54:21;;;;;;;2.22;2.12;;;;;;;28.79;34.12;98858.73;2058397;86;21161;-87
2022/06/26 10:57:22;;;;;;;2.52;1.77;;;;;;;28.78;33.03;98864.42;2046137;86;21093;-83
2022/06/26 11:00:23;;;;;;;2.30;2.20;;;;;;;28.71;32.26;98866.16;2043835;85;21112;-85
2022/06/26 11:03:24;;;;;;;4.25;2.05;;;;;;;28.68;34.04;98869.42;2049540;86;21081;-87
2022/06/26 11:06:24;;;;;;;2.45;2.20;;;;;;;28.71;32.70;98862.64;2049607;85;21027;-88
2022/06/26 11:09:25;;;;;;;2.55;2.20;;;;;;;28.74;33.18;98864.77;2074404;85;21630;-89
2022/06/26 11:12:26;;;;;;;2.70;2.08;;;;;;;28.79;33.09;98857.93;2037090;85;21033;-87
2022/06/26 11:15:27;;;;;;;2.50;1.95;;;;;;;28.79;32.72;98860.63;2059229;85;21513;-87
2022/06/26 11:18:27;;;;;;;2.92;2.58;;;;;;;28.82;32.41;98851.42;2032608;86;21014;-88
2022/06/26 11:21:28;;;;;;;5.03;2.77;;;;;;;28.89;33.50;98857.78;2020354;87;21076;-88
2022/06/26 11:24:29;;;;;;;2.77;1.95;;;;;;;28.92;32.98;98863.16;2017691;86;21118;-89
2022/06/26 11:27:30;;;;;;;4.85;2.20;;;;;;;28.86;32.73;98857.01;2025151;86;21033;-87
2022/06/26 11:30:30;;;;;;;2.42;2.33;;;;;;;28.87;31.99;98855.36;2016045;86;21034;-83
2022/06/26 11:33:31;;;;;;;2.60;2.50;;;;;;;28.82;30.99;98851.97;2017883;86;21618;-82
2022/06/26 11:36:32;;;;;;;2.67;2.25;;;;;;;28.77;30.63;98844.77;2006560;87;21090;-83
2022/06/26 11:39:33;;;;;;;3.45;2.08;;;;;;;28.81;31.06;98851.17;2012621;87;21114;-83
2022/06/26 11:42:33;;;;;;;2.50;2.30;;;;;;;28.87;30.92;98851.32;2013644;86;21192;-83
2022/06/26 11:45:34;;;;;;;4.05;2.47;;;;;;;28.99;33.57;98846.85;2017989;86;21042;-83
2022/06/26 11:48:35;;;;;;;2.10;2.00;;;;;;;29.00;32.28;98852.49;2020732;86;21105;-83
2022/06/26 11:51:35;;;;;;;2.30;2.20;;;;;;;29.01;32.65;98846.55;2012578;87;21070;-83
2022/06/26 11:54:36;;;;;;;2.10;2.00;;;;;;;28.96;32.04;98850.13;2023103;87;21053;-85
2022/06/26 11:57:40;;;;;;;2.12;2.02;;;;;;;28.98;32.78;98837.14;2013956;87;21082;-89
2022/06/26 12:00:41;;;;;;;3.25;2.17;;;;;;;29.03;32.63;98838.96;2014377;86;21137;-88
2022/06/26 12:03:41;;;;;;;2.42;2.20;;;;;;;29.05;32.85;98848.34;2016260;87;21081;-84
2022/06/26 12:06:42;;;;;;;2.10;2.00;;;;;;;29.11;32.96;98847.71;2005215;86;21051;-83
2022/06/26 12:09:43;;;;;;;2.45;2.25;;;;;;;29.12;33.03;98843.91;2019038;86;21050;-83
2022/06/26 12:12:44;;;;;;;2.60;1.90;;;;;;;29.13;32.52;98847.66;2016568;86;21097;-86
2022/06/26 12:15:44;;;;;;;3.08;2.75;;;;;;;29.16;31.35;98849.74;2008010;86;21059;-87
2022/06/26 12:18:45;;;;;;;2.17;2.08;;;;;;;29.12;31.54;98852.80;2035228;86;20998;-82
2022/06/26 12:21:46;;;;;;;2.30;2.10;;;;;;;29.13;31.54;98849.55;2014556;87;21554;-87
2022/06/26 12:24:46;;;;;;;1.85;1.75;;;;;;;29.16;32.25;98848.40;1999900;86;21004;-88
2022/06/26 12:27:47;;;;;;;3.25;2.05;;;;;;;29.19;32.32;98848.38;2008273;86;21747;-87
2022/06/26 12:30:48;;;;;;;2.85;2.27;;;;;;;29.24;32.23;98844.22;2012351;86;21157;-87
2022/06/26 12:33:49;;;;;;;2.70;2.33;;;;;;;29.29;31.84;98847.38;2010329;87;21105;-89
2022/06/26 12:36:50;;;;;;;2.33;2.15;;;;;;;29.29;31.45;98840.64;2040485;86;21033;-86
2022/06/26 12:39:51;;;;;;;4.92;2.40;;;;;;;29.22;31.89;98840.23;2004559;87;21144;-89
2022/06/26 12:42:51;;;;;;;2.25;1.90;;;;;;;29.22;31.41;98845.07;2016714;86;21073;-86
2022/06/26 12:45:52;;;;;;;1.80;1.75;;;;;;;29.25;31.58;98839.07;2009803;88;21628;-88
2022/06/26 12:48:52;;;;;;;2.08;1.98;;;;;;;29.33;31.65;98836.23;2017626;87;21070;-84
2022/06/26 12:51:53;;;;;;;2.92;2.25;;;;;;;29.33;30.97;98831.64;2016861;86;21085;-89
2022/06/26 12:54:54;;;;;;;2.45;2.05;;;;;;;29.36;31.88;98836.45;2014277;87;21029;-83
2022/06/26 12:57:55;;;;;;;2.08;1.87;;;;;;;29.36;31.60;98838.35;2026881;86;21066;-84
2022/06/26 13:00:55;;;;;;;2.37;2.12;;;;;;;29.39;31.49;98837.74;2018462;87;21331;-88
2022/06/26 13:03:57;;;;;;;2.72;2.35;;;;;;;29.35;31.35;98837.55;2009413;87;21089;-84
2022/06/26 13:06:57;;;;;;;9.55;3.10;;;;;;;29.36;31.36;98833.75;2012183;87;21113;-84
2022/06/26 13:09:58;;;;;;;2.45;2.25;;;;;;;29.35;31.56;98834.86;2025596;86;21677;-83
2022/06/26 13:12:59;;;;;;;1.92;1.82;;;;;;;29.38;31.98;98829.41;2039702;86;21131;-87
2022/06/26 13:16:00;;;;;;;4.50;2.62;;;;;;;29.40;32.30;98823.95;2039663;86;21112;-86
2022/06/26 13:19:00;;;;;;;2.45;2.25;;;;;;;29.49;32.42;98827.33;2008731;86;21251;-89
2022/06/26 13:22:01;;;;;;;2.77;2.58;;;;;;;29.51;31.93;98829.17;1999869;87;21438;-88
2022/06/26 13:25:02;;;;;;;2.30;2.20;;;;;;;29.51;32.33;98829.97;2026311;86;21085;-86
2022/06/26 13:28:02;;;;;;;2.47;2.37;;;;;;;29.53;32.56;98826.41;2036585;86;20998;-89
2022/06/26 13:31:03;;;;;;;3.30;2.80;;;;;;;29.55;32.50;98832.88;2038023;87;21643;-86
2022/06/26 13:34:04;;;;;;;2.55;2.33;;;;;;;29.53;32.40;98824.27;2037210;86;21037;-88
2022/06/26 13:37:05;;;;;;;1.95;1.87;;;;;;;29.52;32.44;98825.37;2036530;86;21518;-91
2022/06/26 13:40:05;;;;;;;2.72;2.52;;;;;;;29.55;32.38;98829.63;2037587;86;21068;-86
2022/06/26 13:43:06;;;;;;;2.55;2.25;;;;;;;29.59;32.05;98825.22;2038029;86;21037;-86
2022/06/26 13:46:06;;;;;;;3.65;2.42;;;;;;;29.56;31.08;98824.48;2037267;86;21045;-86
2022/06/26 13:49:10;;;;;;;2.00;1.90;;;;;;;29.55;30.64;98828.28;2037044;86;21133;-86
2022/06/26 13:52:11;;;;;;;2.90;2.58;;;;;;;29.53;30.71;98823.72;2035488;86;21552;-87
2022/06/26 13:55:12;;;;;;;2.50;2.10;;;;;;;29.50;30.59;98816.23;2043586;87;21088;-87
2022/06/26 13:58:13;;;;;;;3.05;2.25;;;;;;;29.55;31.02;98818.84;2001561;87;21029;-88
2022/06/26 14:01:13;;;;;;;3.20;2.05;;;;;;;29.57;31.10;98822.58;2017302;86;21014;-88
2022/06/26 14:04:14;;;;;;;2.83;2.62;;;;;;;29.53;30.42;98822.36;2012303;88;21050;-88
2022/06/26 14:07:15;;;;;;;2.35;2.17;;;;;;;29.50;30.99;98827.02;2017460;86;21078;-86
2022/06/26 14:10:16;;;;;;;2.77;2.25;;;;;;;29.46;30.58;98824.66;2018816;87;21084;-85
2022/06/26 14:13:16;;;;;;;2.50;2.30;;;;;;;29.46;30.58;98824.66;2008722;86;21088;-89
2022/06/26 14:16:17;;;;;;;2.30;2.20;;;;;;;29.48;30.76;98818.41;2007942;86;21061;-87
2022/06/26 14:19:18;;;;;;;12.15;3.20;;;;;;;29.50;30.56;98820.83;2017310;87;21077;-85
2022/06/26 14:25:56;;;;;;;2.35;2.12;;;;;;;29.50;30.53;98822.98;2016883;87;21066;-85
2022/06/26 14:28:57;;;;;;;2.08;1.85;;;;;;;29.51;30.94;98823.22;2008724;87;21104;-86